sensor_id;sensor_type;location;lat;lon;timestamp;P1;durP1;ratioP1;P2;durP2;ratioP2
19537;SDS011;9914;51.008;4.300;2022-07-18T00:02:15;3.60;;;2.50;;
19537;SDS011;9914;51.008;4.300;2022-07-18T00:04:41;6.70;;;2.87;;
19537;SDS011;9914;51.008;4.300;2022-07-18T00:07:07;5.67;;;2.63;;
19537;SDS011;9914;51.008;4.300;2022-07-18T00:09:35;5.17;;;2.63;;
19537;SDS011;9914;51.008;4.300;2022-07-18T00:12:03;5.33;;;2.90;;
19537;SDS011;9914;51.008;4.300;2022-07-18T00:14:30;4.60;;;3.00;;
19537;SDS011;9914;51.008;4.300;2022-07-18T00:16:55;5.10;;;3.00;;
19537;SDS011;9914;51.008;4.300;2022-07-18T00:19:21;7.53;;;3.57;;
19537;SDS011;9914;51.008;4.300;2022-07-18T00:21:47;7.00;;;2.83;;
19537;SDS011;9914;51.008;4.300;2022-07-18T00:24:12;6.83;;;3.00;;
19537;SDS011;9914;51.008;4.300;2022-07-18T00:26:38;7.40;;;3.00;;
19537;SDS011;9914;51.008;4.300;2022-07-18T00:29:04;4.10;;;2.83;;
19537;SDS011;9914;51.008;4.300;2022-07-18T00:31:30;7.00;;;2.57;;
19537;SDS011;9914;51.008;4.300;2022-07-18T00:33:55;7.17;;;2.90;;
19537;SDS011;9914;51.008;4.300;2022-07-18T00:36:21;9.03;;;2.53;;
19537;SDS011;9914;51.008;4.300;2022-07-18T00:38:46;6.60;;;3.10;;
19537;SDS011;9914;51.008;4.300;2022-07-18T00:41:15;6.40;;;2.87;;
19537;SDS011;9914;51.008;4.300;2022-07-18T00:43:41;7.10;;;2.70;;
19537;SDS011;9914;51.008;4.300;2022-07-18T00:46:07;4.50;;;2.60;;
19537;SDS011;9914;51.008;4.300;2022-07-18T00:48:33;4.33;;;2.50;;
19537;SDS011;9914;51.008;4.300;2022-07-18T00:50:59;5.60;;;2.50;;
19537;SDS011;9914;51.008;4.300;2022-07-18T00:53:24;4.80;;;2.70;;
19537;SDS011;9914;51.008;4.300;2022-07-18T00:55:50;8.23;;;2.50;;
19537;SDS011;9914;51.008;4.300;2022-07-18T00:58:18;6.67;;;2.90;;
19537;SDS011;9914;51.008;4.300;2022-07-18T01:00:44;6.23;;;2.80;;
19537;SDS011;9914;51.008;4.300;2022-07-18T01:03:28;6.77;;;2.50;;
19537;SDS011;9914;51.008;4.300;2022-07-18T01:05:53;5.50;;;2.20;;
19537;SDS011;9914;51.008;4.300;2022-07-18T01:08:19;6.97;;;2.50;;
19537;SDS011;9914;51.008;4.300;2022-07-18T01:10:45;6.07;;;2.30;;
19537;SDS011;9914;51.008;4.300;2022-07-18T01:13:11;6.07;;;2.20;;
19537;SDS011;9914;51.008;4.300;2022-07-18T01:15:36;3.40;;;2.40;;
19537;SDS011;9914;51.008;4.300;2022-07-18T01:18:02;8.63;;;2.60;;
19537;SDS011;9914;51.008;4.300;2022-07-18T01:20:29;6.10;;;2.43;;
19537;SDS011;9914;51.008;4.300;2022-07-18T01:22:56;3.10;;;2.40;;
19537;SDS011;9914;51.008;4.300;2022-07-18T01:25:22;6.03;;;2.30;;
19537;SDS011;9914;51.008;4.300;2022-07-18T01:27:47;4.37;;;2.53;;
19537;SDS011;9914;51.008;4.300;2022-07-18T01:30:13;4.13;;;2.90;;
19537;SDS011;9914;51.008;4.300;2022-07-18T01:32:40;8.73;;;2.70;;
19537;SDS011;9914;51.008;4.300;2022-07-18T01:35:07;4.37;;;2.33;;
19537;SDS011;9914;51.008;4.300;2022-07-18T01:37:33;3.97;;;2.63;;
19537;SDS011;9914;51.008;4.300;2022-07-18T01:39:58;3.63;;;2.83;;
19537;SDS011;9914;51.008;4.300;2022-07-18T01:42:24;8.20;;;3.10;;
19537;SDS011;9914;51.008;4.300;2022-07-18T01:44:49;3.63;;;2.60;;
19537;SDS011;9914;51.008;4.300;2022-07-18T01:47:15;6.13;;;2.87;;
19537;SDS011;9914;51.008;4.300;2022-07-18T01:49:41;4.63;;;2.63;;
19537;SDS011;9914;51.008;4.300;2022-07-18T01:52:08;5.30;;;2.73;;
19537;SDS011;9914;51.008;4.300;2022-07-18T01:54:35;7.27;;;2.87;;
19537;SDS011;9914;51.008;4.300;2022-07-18T01:57:02;5.90;;;2.90;;
19537;SDS011;9914;51.008;4.300;2022-07-18T01:59:29;5.70;;;2.47;;
19537;SDS011;9914;51.008;4.300;2022-07-18T02:01:55;6.70;;;2.40;;
19537;SDS011;9914;51.008;4.300;2022-07-18T02:04:21;4.07;;;2.80;;
19537;SDS011;9914;51.008;4.300;2022-07-18T02:07:06;3.83;;;2.67;;
19537;SDS011;9914;51.008;4.300;2022-07-18T02:09:32;5.37;;;2.90;;
19537;SDS011;9914;51.008;4.300;2022-07-18T02:11:58;4.83;;;2.50;;
19537;SDS011;9914;51.008;4.300;2022-07-18T02:14:24;5.43;;;2.67;;
19537;SDS011;9914;51.008;4.300;2022-07-18T02:16:49;6.43;;;3.13;;
19537;SDS011;9914;51.008;4.300;2022-07-18T02:19:15;7.87;;;3.93;;
19537;SDS011;9914;51.008;4.300;2022-07-18T02:21:40;8.23;;;3.60;;
19537;SDS011;9914;51.008;4.300;2022-07-18T02:24:06;7.27;;;2.97;;
19537;SDS011;9914;51.008;4.300;2022-07-18T02:26:32;5.17;;;3.37;;
19537;SDS011;9914;51.008;4.300;2022-07-18T02:28:58;5.23;;;3.60;;
19537;SDS011;9914;51.008;4.300;2022-07-18T02:31:23;7.37;;;3.63;;
19537;SDS011;9914;51.008;4.300;2022-07-18T02:33:49;4.63;;;3.50;;
19537;SDS011;9914;51.008;4.300;2022-07-18T02:36:14;5.43;;;3.23;;
19537;SDS011;9914;51.008;4.300;2022-07-18T02:38:40;6.07;;;2.77;;
19537;SDS011;9914;51.008;4.300;2022-07-18T02:41:05;7.23;;;3.17;;
19537;SDS011;9914;51.008;4.300;2022-07-18T02:43:31;7.53;;;2.83;;
19537;SDS011;9914;51.008;4.300;2022-07-18T02:45:57;3.83;;;3.13;;
19537;SDS011;9914;51.008;4.300;2022-07-18T02:48:23;9.47;;;3.10;;
19537;SDS011;9914;51.008;4.300;2022-07-18T02:50:48;6.80;;;2.77;;
19537;SDS011;9914;51.008;4.300;2022-07-18T02:53:14;4.00;;;3.10;;
19537;SDS011;9914;51.008;4.300;2022-07-18T02:55:40;4.57;;;2.67;;
19537;SDS011;9914;51.008;4.300;2022-07-18T02:58:05;5.60;;;3.03;;
19537;SDS011;9914;51.008;4.300;2022-07-18T03:00:31;7.17;;;3.00;;
19537;SDS011;9914;51.008;4.300;2022-07-18T03:02:56;4.57;;;2.67;;
19537;SDS011;9914;51.008;4.300;2022-07-18T03:05:22;6.43;;;2.70;;
19537;SDS011;9914;51.008;4.300;2022-07-18T03:07:48;3.77;;;2.80;;
19537;SDS011;9914;51.008;4.300;2022-07-18T03:10:13;10.07;;;2.70;;
19537;SDS011;9914;51.008;4.300;2022-07-18T03:12:42;3.50;;;2.70;;
19537;SDS011;9914;51.008;4.300;2022-07-18T03:15:07;5.97;;;3.07;;
19537;SDS011;9914;51.008;4.300;2022-07-18T03:17:33;7.03;;;2.37;;
19537;SDS011;9914;51.008;4.300;2022-07-18T03:19:59;5.33;;;2.80;;
19537;SDS011;9914;51.008;4.300;2022-07-18T03:22:25;6.93;;;3.00;;
19537;SDS011;9914;51.008;4.300;2022-07-18T03:24:50;4.73;;;2.70;;
19537;SDS011;9914;51.008;4.300;2022-07-18T03:27:16;5.57;;;2.40;;
19537;SDS011;9914;51.008;4.300;2022-07-18T03:29:41;8.40;;;2.60;;
19537;SDS011;9914;51.008;4.300;2022-07-18T03:32:07;5.77;;;2.60;;
19537;SDS011;9914;51.008;4.300;2022-07-18T03:34:32;5.03;;;2.97;;
19537;SDS011;9914;51.008;4.300;2022-07-18T03:36:58;12.10;;;2.90;;
19537;SDS011;9914;51.008;4.300;2022-07-18T03:39:24;4.60;;;2.50;;
19537;SDS011;9914;51.008;4.300;2022-07-18T03:41:51;6.40;;;2.67;;
19537;SDS011;9914;51.008;4.300;2022-07-18T03:44:17;4.83;;;2.97;;
19537;SDS011;9914;51.008;4.300;2022-07-18T03:46:42;6.10;;;2.23;;
19537;SDS011;9914;51.008;4.300;2022-07-18T03:49:08;4.17;;;2.33;;
19537;SDS011;9914;51.008;4.300;2022-07-18T03:51:34;4.90;;;2.83;;
19537;SDS011;9914;51.008;4.300;2022-07-18T03:54:00;5.60;;;2.93;;
19537;SDS011;9914;51.008;4.300;2022-07-18T03:56:26;10.93;;;4.90;;
19537;SDS011;9914;51.008;4.300;2022-07-18T03:58:51;10.73;;;5.23;;
19537;SDS011;9914;51.008;4.300;2022-07-18T04:01:17;9.07;;;4.97;;
19537;SDS011;9914;51.008;4.300;2022-07-18T04:03:43;7.37;;;4.07;;
19537;SDS011;9914;51.008;4.300;2022-07-18T04:06:08;8.67;;;3.80;;
19537;SDS011;9914;51.008;4.300;2022-07-18T04:08:34;12.63;;;3.57;;
19537;SDS011;9914;51.008;4.300;2022-07-18T04:11:00;6.87;;;3.17;;
19537;SDS011;9914;51.008;4.300;2022-07-18T04:13:25;7.17;;;3.53;;
19537;SDS011;9914;51.008;4.300;2022-07-18T04:15:51;6.67;;;3.03;;
19537;SDS011;9914;51.008;4.300;2022-07-18T04:18:17;8.50;;;3.07;;
19537;SDS011;9914;51.008;4.300;2022-07-18T04:20:42;6.60;;;3.40;;
19537;SDS011;9914;51.008;4.300;2022-07-18T04:23:08;8.73;;;3.03;;
19537;SDS011;9914;51.008;4.300;2022-07-18T04:25:38;5.43;;;3.10;;
19537;SDS011;9914;51.008;4.300;2022-07-18T04:28:05;7.83;;;3.37;;
19537;SDS011;9914;51.008;4.300;2022-07-18T04:30:32;8.67;;;3.17;;
19537;SDS011;9914;51.008;4.300;2022-07-18T04:33:00;9.47;;;2.73;;
19537;SDS011;9914;51.008;4.300;2022-07-18T04:35:28;11.70;;;3.63;;
19537;SDS011;9914;51.008;4.300;2022-07-18T04:37:53;6.13;;;4.07;;
19537;SDS011;9914;51.008;4.300;2022-07-18T04:40:19;10.37;;;3.53;;
19537;SDS011;9914;51.008;4.300;2022-07-18T04:42:45;7.50;;;3.20;;
19537;SDS011;9914;51.008;4.300;2022-07-18T04:45:12;8.40;;;3.40;;
19537;SDS011;9914;51.008;4.300;2022-07-18T04:47:38;11.43;;;3.47;;
19537;SDS011;9914;51.008;4.300;2022-07-18T04:50:05;6.90;;;3.23;;
19537;SDS011;9914;51.008;4.300;2022-07-18T04:52:38;7.43;;;3.33;;
19537;SDS011;9914;51.008;4.300;2022-07-18T04:55:05;8.70;;;3.53;;
19537;SDS011;9914;51.008;4.300;2022-07-18T04:57:31;7.70;;;3.30;;
19537;SDS011;9914;51.008;4.300;2022-07-18T04:59:57;5.50;;;3.17;;
19537;SDS011;9914;51.008;4.300;2022-07-18T05:02:23;14.03;;;3.70;;
19537;SDS011;9914;51.008;4.300;2022-07-18T05:04:48;10.00;;;3.47;;
19537;SDS011;9914;51.008;4.300;2022-07-18T05:07:14;10.83;;;3.70;;
19537;SDS011;9914;51.008;4.300;2022-07-18T05:09:39;9.17;;;3.40;;
19537;SDS011;9914;51.008;4.300;2022-07-18T05:12:05;9.07;;;3.33;;
19537;SDS011;9914;51.008;4.300;2022-07-18T05:14:31;10.60;;;3.37;;
19537;SDS011;9914;51.008;4.300;2022-07-18T05:16:57;8.93;;;3.20;;
19537;SDS011;9914;51.008;4.300;2022-07-18T05:19:22;8.73;;;3.40;;
19537;SDS011;9914;51.008;4.300;2022-07-18T05:21:48;7.13;;;3.20;;
19537;SDS011;9914;51.008;4.300;2022-07-18T05:24:14;8.27;;;3.23;;
19537;SDS011;9914;51.008;4.300;2022-07-18T05:26:39;8.80;;;3.40;;
19537;SDS011;9914;51.008;4.300;2022-07-18T05:29:05;9.67;;;3.70;;
19537;SDS011;9914;51.008;4.300;2022-07-18T05:31:30;5.57;;;3.50;;
19537;SDS011;9914;51.008;4.300;2022-07-18T05:33:56;5.83;;;2.87;;
19537;SDS011;9914;51.008;4.300;2022-07-18T05:36:22;7.23;;;3.43;;
19537;SDS011;9914;51.008;4.300;2022-07-18T05:38:47;6.83;;;3.17;;
19537;SDS011;9914;51.008;4.300;2022-07-18T05:41:13;10.63;;;3.70;;
19537;SDS011;9914;51.008;4.300;2022-07-18T05:43:39;4.97;;;3.03;;
19537;SDS011;9914;51.008;4.300;2022-07-18T05:46:05;5.93;;;3.57;;
19537;SDS011;9914;51.008;4.300;2022-07-18T05:48:31;10.73;;;3.20;;
19537;SDS011;9914;51.008;4.300;2022-07-18T05:50:56;6.23;;;3.50;;
19537;SDS011;9914;51.008;4.300;2022-07-18T05:53:22;9.57;;;3.90;;
19537;SDS011;9914;51.008;4.300;2022-07-18T05:55:48;8.67;;;3.40;;
19537;SDS011;9914;51.008;4.300;2022-07-18T05:58:13;7.97;;;3.77;;
19537;SDS011;9914;51.008;4.300;2022-07-18T06:00:39;10.60;;;3.60;;
19537;SDS011;9914;51.008;4.300;2022-07-18T06:03:05;7.40;;;3.37;;
19537;SDS011;9914;51.008;4.300;2022-07-18T06:05:31;9.43;;;3.43;;
19537;SDS011;9914;51.008;4.300;2022-07-18T06:07:56;8.80;;;3.30;;
19537;SDS011;9914;51.008;4.300;2022-07-18T06:10:23;11.13;;;3.53;;
19537;SDS011;9914;51.008;4.300;2022-07-18T06:12:51;7.73;;;3.37;;
19537;SDS011;9914;51.008;4.300;2022-07-18T06:15:17;12.67;;;4.20;;
19537;SDS011;9914;51.008;4.300;2022-07-18T06:17:42;13.47;;;3.53;;
19537;SDS011;9914;51.008;4.300;2022-07-18T06:20:08;8.47;;;3.30;;
19537;SDS011;9914;51.008;4.300;2022-07-18T06:22:35;11.17;;;3.40;;
19537;SDS011;9914;51.008;4.300;2022-07-18T06:25:01;8.33;;;3.77;;
19537;SDS011;9914;51.008;4.300;2022-07-18T06:27:27;8.77;;;3.10;;
19537;SDS011;9914;51.008;4.300;2022-07-18T06:29:53;6.20;;;3.20;;
19537;SDS011;9914;51.008;4.300;2022-07-18T06:32:18;8.07;;;3.30;;
19537;SDS011;9914;51.008;4.300;2022-07-18T06:34:44;9.17;;;3.47;;
19537;SDS011;9914;51.008;4.300;2022-07-18T06:37:10;6.27;;;3.00;;
19537;SDS011;9914;51.008;4.300;2022-07-18T06:39:35;5.03;;;2.97;;
19537;SDS011;9914;51.008;4.300;2022-07-18T06:42:01;5.37;;;3.03;;
19537;SDS011;9914;51.008;4.300;2022-07-18T06:44:27;7.27;;;3.20;;
19537;SDS011;9914;51.008;4.300;2022-07-18T06:46:52;7.37;;;3.47;;
19537;SDS011;9914;51.008;4.300;2022-07-18T06:49:18;7.50;;;3.63;;
19537;SDS011;9914;51.008;4.300;2022-07-18T06:51:44;7.97;;;3.23;;
19537;SDS011;9914;51.008;4.300;2022-07-18T06:54:10;10.87;;;3.30;;
19537;SDS011;9914;51.008;4.300;2022-07-18T06:56:36;10.27;;;3.37;;
19537;SDS011;9914;51.008;4.300;2022-07-18T06:59:01;10.90;;;3.50;;
19537;SDS011;9914;51.008;4.300;2022-07-18T07:01:27;9.63;;;3.30;;
19537;SDS011;9914;51.008;4.300;2022-07-18T07:03:53;4.50;;;2.60;;
19537;SDS011;9914;51.008;4.300;2022-07-18T07:06:19;9.80;;;3.10;;
19537;SDS011;9914;51.008;4.300;2022-07-18T07:08:44;7.80;;;3.37;;
19537;SDS011;9914;51.008;4.300;2022-07-18T07:11:10;7.67;;;3.03;;
19537;SDS011;9914;51.008;4.300;2022-07-18T07:13:36;7.10;;;3.67;;
19537;SDS011;9914;51.008;4.300;2022-07-18T07:16:02;9.13;;;3.53;;
19537;SDS011;9914;51.008;4.300;2022-07-18T07:18:28;10.07;;;3.33;;
19537;SDS011;9914;51.008;4.300;2022-07-18T07:20:53;7.70;;;3.13;;
19537;SDS011;9914;51.008;4.300;2022-07-18T07:23:19;8.33;;;3.10;;
19537;SDS011;9914;51.008;4.300;2022-07-18T07:25:45;7.30;;;3.40;;
19537;SDS011;9914;51.008;4.300;2022-07-18T07:28:10;5.47;;;3.00;;
19537;SDS011;9914;51.008;4.300;2022-07-18T07:30:36;6.00;;;2.90;;
19537;SDS011;9914;51.008;4.300;2022-07-18T07:33:02;7.03;;;3.10;;
19537;SDS011;9914;51.008;4.300;2022-07-18T07:35:28;6.93;;;2.93;;
19537;SDS011;9914;51.008;4.300;2022-07-18T07:37:55;4.43;;;2.97;;
19537;SDS011;9914;51.008;4.300;2022-07-18T07:40:23;6.67;;;2.43;;
19537;SDS011;9914;51.008;4.300;2022-07-18T07:42:49;6.70;;;2.60;;
19537;SDS011;9914;51.008;4.300;2022-07-18T07:45:16;3.70;;;2.50;;
19537;SDS011;9914;51.008;4.300;2022-07-18T07:47:42;5.53;;;2.37;;
19537;SDS011;9914;51.008;4.300;2022-07-18T07:50:09;4.53;;;2.60;;
19537;SDS011;9914;51.008;4.300;2022-07-18T07:52:36;7.10;;;2.60;;
19537;SDS011;9914;51.008;4.300;2022-07-18T07:55:03;5.13;;;2.50;;
19537;SDS011;9914;51.008;4.300;2022-07-18T07:57:29;5.00;;;2.67;;
19537;SDS011;9914;51.008;4.300;2022-07-18T07:59:55;5.93;;;2.47;;
19537;SDS011;9914;51.008;4.300;2022-07-18T08:02:20;4.77;;;2.50;;
19537;SDS011;9914;51.008;4.300;2022-07-18T08:04:46;3.93;;;2.47;;
19537;SDS011;9914;51.008;4.300;2022-07-18T08:07:12;8.87;;;3.00;;
19537;SDS011;9914;51.008;4.300;2022-07-18T08:09:37;4.97;;;2.47;;
19537;SDS011;9914;51.008;4.300;2022-07-18T08:12:03;6.07;;;2.63;;
19537;SDS011;9914;51.008;4.300;2022-07-18T08:14:29;5.03;;;2.47;;
19537;SDS011;9914;51.008;4.300;2022-07-18T08:16:57;5.00;;;2.33;;
19537;SDS011;9914;51.008;4.300;2022-07-18T08:19:23;3.33;;;2.30;;
19537;SDS011;9914;51.008;4.300;2022-07-18T08:21:48;4.07;;;2.23;;
19537;SDS011;9914;51.008;4.300;2022-07-18T08:24:14;6.97;;;2.20;;
19537;SDS011;9914;51.008;4.300;2022-07-18T08:26:40;5.23;;;2.70;;
19537;SDS011;9914;51.008;4.300;2022-07-18T08:29:06;3.97;;;2.27;;
19537;SDS011;9914;51.008;4.300;2022-07-18T08:31:32;5.83;;;2.10;;
19537;SDS011;9914;51.008;4.300;2022-07-18T08:33:57;3.43;;;2.43;;
19537;SDS011;9914;51.008;4.300;2022-07-18T08:36:23;7.30;;;2.40;;
19537;SDS011;9914;51.008;4.300;2022-07-18T08:38:49;3.47;;;2.30;;
19537;SDS011;9914;51.008;4.300;2022-07-18T08:41:16;3.30;;;2.30;;
19537;SDS011;9914;51.008;4.300;2022-07-18T08:43:43;4.40;;;2.40;;
19537;SDS011;9914;51.008;4.300;2022-07-18T08:46:12;5.17;;;2.30;;
19537;SDS011;9914;51.008;4.300;2022-07-18T08:48:39;2.20;;;1.90;;
19537;SDS011;9914;51.008;4.300;2022-07-18T08:51:05;5.43;;;2.43;;
19537;SDS011;9914;51.008;4.300;2022-07-18T08:53:31;21.73;;;3.27;;
19537;SDS011;9914;51.008;4.300;2022-07-18T08:55:59;4.33;;;2.20;;
19537;SDS011;9914;51.008;4.300;2022-07-18T08:58:25;5.00;;;2.07;;
19537;SDS011;9914;51.008;4.300;2022-07-18T09:00:50;3.70;;;2.07;;
19537;SDS011;9914;51.008;4.300;2022-07-18T09:03:16;3.77;;;2.27;;
19537;SDS011;9914;51.008;4.300;2022-07-18T09:05:42;5.80;;;2.40;;
19537;SDS011;9914;51.008;4.300;2022-07-18T09:08:08;3.60;;;2.07;;
19537;SDS011;9914;51.008;4.300;2022-07-18T09:10:52;4.97;;;2.30;;
19537;SDS011;9914;51.008;4.300;2022-07-18T09:13:20;10.83;;;2.10;;
19537;SDS011;9914;51.008;4.300;2022-07-18T09:16:01;4.50;;;2.30;;
19537;SDS011;9914;51.008;4.300;2022-07-18T09:18:41;3.23;;;2.20;;
19537;SDS011;9914;51.008;4.300;2022-07-18T09:21:12;5.93;;;2.13;;
19537;SDS011;9914;51.008;4.300;2022-07-18T09:23:41;5.33;;;2.20;;
19537;SDS011;9914;51.008;4.300;2022-07-18T09:26:09;4.37;;;2.20;;
19537;SDS011;9914;51.008;4.300;2022-07-18T09:28:45;3.37;;;2.13;;
19537;SDS011;9914;51.008;4.300;2022-07-18T09:31:22;3.87;;;2.10;;
19537;SDS011;9914;51.008;4.300;2022-07-18T09:33:52;5.77;;;2.20;;
19537;SDS011;9914;51.008;4.300;2022-07-18T09:36:18;4.63;;;2.80;;
19537;SDS011;9914;51.008;4.300;2022-07-18T09:38:44;3.40;;;2.37;;
19537;SDS011;9914;51.008;4.300;2022-07-18T09:41:13;3.30;;;2.30;;
19537;SDS011;9914;51.008;4.300;2022-07-18T09:43:39;2.83;;;1.97;;
19537;SDS011;9914;51.008;4.300;2022-07-18T09:46:05;3.97;;;1.93;;
19537;SDS011;9914;51.008;4.300;2022-07-18T09:48:32;4.57;;;2.13;;
19537;SDS011;9914;51.008;4.300;2022-07-18T09:50:59;3.80;;;2.30;;
19537;SDS011;9914;51.008;4.300;2022-07-18T09:53:32;6.23;;;2.03;;
19537;SDS011;9914;51.008;4.300;2022-07-18T09:58:35;3.57;;;2.00;;
19537;SDS011;9914;51.008;4.300;2022-07-18T10:01:21;3.47;;;1.90;;
19537;SDS011;9914;51.008;4.300;2022-07-18T10:03:48;4.43;;;2.10;;
19537;SDS011;9914;51.008;4.300;2022-07-18T10:06:15;4.13;;;2.00;;
19537;SDS011;9914;51.008;4.300;2022-07-18T10:08:41;4.03;;;1.93;;
19537;SDS011;9914;51.008;4.300;2022-07-18T10:11:07;4.40;;;2.10;;
19537;SDS011;9914;51.008;4.300;2022-07-18T10:13:34;2.33;;;1.63;;
19537;SDS011;9914;51.008;4.300;2022-07-18T10:16:01;2.87;;;2.20;;
19537;SDS011;9914;51.008;4.300;2022-07-18T10:18:28;3.97;;;2.57;;
19537;SDS011;9914;51.008;4.300;2022-07-18T10:31:34;2.73;;;1.83;;
19537;SDS011;9914;51.008;4.300;2022-07-18T10:39:13;3.77;;;2.10;;
19537;SDS011;9914;51.008;4.300;2022-07-18T11:00:16;3.33;;;1.70;;
19537;SDS011;9914;51.008;4.300;2022-07-18T11:03:08;2.13;;;1.70;;
19537;SDS011;9914;51.008;4.300;2022-07-18T11:05:42;1.93;;;1.40;;
19537;SDS011;9914;51.008;4.300;2022-07-18T11:08:16;3.30;;;1.70;;
19537;SDS011;9914;51.008;4.300;2022-07-18T11:23:43;1.60;;;1.50;;
19537;SDS011;9914;51.008;4.300;2022-07-18T11:26:16;2.37;;;1.80;;
19537;SDS011;9914;51.008;4.300;2022-07-18T11:28:43;2.40;;;1.80;;
19537;SDS011;9914;51.008;4.300;2022-07-18T11:31:12;2.50;;;1.93;;
19537;SDS011;9914;51.008;4.300;2022-07-18T11:33:44;3.80;;;1.97;;
19537;SDS011;9914;51.008;4.300;2022-07-18T11:36:13;4.13;;;1.93;;
19537;SDS011;9914;51.008;4.300;2022-07-18T11:38:47;2.20;;;1.80;;
19537;SDS011;9914;51.008;4.300;2022-07-18T11:41:14;3.60;;;1.50;;
19537;SDS011;9914;51.008;4.300;2022-07-18T11:43:42;6.37;;;1.90;;
19537;SDS011;9914;51.008;4.300;2022-07-18T11:46:10;2.97;;;1.90;;
19537;SDS011;9914;51.008;4.300;2022-07-18T11:48:37;4.23;;;1.77;;
19537;SDS011;9914;51.008;4.300;2022-07-18T11:53:35;4.07;;;2.00;;
19537;SDS011;9914;51.008;4.300;2022-07-18T11:56:04;2.10;;;1.70;;
19537;SDS011;9914;51.008;4.300;2022-07-18T11:58:37;4.53;;;2.10;;
19537;SDS011;9914;51.008;4.300;2022-07-18T12:01:04;4.33;;;1.77;;
19537;SDS011;9914;51.008;4.300;2022-07-18T12:03:30;3.23;;;1.70;;
19537;SDS011;9914;51.008;4.300;2022-07-18T12:05:58;3.83;;;1.80;;
19537;SDS011;9914;51.008;4.300;2022-07-18T12:11:34;3.70;;;1.87;;
19537;SDS011;9914;51.008;4.300;2022-07-18T12:16:38;2.63;;;1.53;;
19537;SDS011;9914;51.008;4.300;2022-07-18T12:19:19;2.43;;;1.67;;
19537;SDS011;9914;51.008;4.300;2022-07-18T12:21:53;4.23;;;1.70;;
19537;SDS011;9914;51.008;4.300;2022-07-18T12:24:33;3.33;;;1.90;;
19537;SDS011;9914;51.008;4.300;2022-07-18T12:32:49;2.27;;;1.60;;
19537;SDS011;9914;51.008;4.300;2022-07-18T12:35:20;2.40;;;1.67;;
19537;SDS011;9914;51.008;4.300;2022-07-18T12:37:51;3.47;;;1.70;;
19537;SDS011;9914;51.008;4.300;2022-07-18T12:40:18;1.98;;;1.80;;
19537;SDS011;9914;51.008;4.300;2022-07-18T12:42:44;1.48;;;1.38;;
19537;SDS011;9914;51.008;4.300;2022-07-18T12:45:11;3.27;;;1.80;;
19537;SDS011;9914;51.008;4.300;2022-07-18T12:47:38;4.70;;;2.03;;
19537;SDS011;9914;51.008;4.300;2022-07-18T12:50:04;2.60;;;1.60;;
19537;SDS011;9914;51.008;4.300;2022-07-18T12:52:31;3.67;;;1.80;;
19537;SDS011;9914;51.008;4.300;2022-07-18T12:54:58;2.03;;;1.83;;
19537;SDS011;9914;51.008;4.300;2022-07-18T12:57:24;2.83;;;1.60;;
19537;SDS011;9914;51.008;4.300;2022-07-18T12:59:50;5.07;;;2.20;;
19537;SDS011;9914;51.008;4.300;2022-07-18T13:02:15;2.10;;;1.80;;
19537;SDS011;9914;51.008;4.300;2022-07-18T13:04:42;3.00;;;1.60;;
19537;SDS011;9914;51.008;4.300;2022-07-18T13:07:08;1.60;;;1.50;;
19537;SDS011;9914;51.008;4.300;2022-07-18T13:09:34;1.75;;;1.65;;
19537;SDS011;9914;51.008;4.300;2022-07-18T13:12:00;4.47;;;1.67;;
19537;SDS011;9914;51.008;4.300;2022-07-18T13:14:26;3.90;;;1.88;;
19537;SDS011;9914;51.008;4.300;2022-07-18T13:16:52;2.30;;;1.77;;
19537;SDS011;9914;51.008;4.300;2022-07-18T13:19:18;2.07;;;1.60;;
19537;SDS011;9914;51.008;4.300;2022-07-18T13:21:45;1.80;;;1.70;;
19537;SDS011;9914;51.008;4.300;2022-07-18T13:24:12;2.00;;;1.80;;
19537;SDS011;9914;51.008;4.300;2022-07-18T13:26:38;3.35;;;1.65;;
19537;SDS011;9914;51.008;4.300;2022-07-18T13:29:04;2.33;;;1.70;;
19537;SDS011;9914;51.008;4.300;2022-07-18T13:31:31;3.20;;;1.98;;
19537;SDS011;9914;51.008;4.300;2022-07-18T13:33:57;2.25;;;1.70;;
19537;SDS011;9914;51.008;4.300;2022-07-18T13:36:22;6.40;;;1.60;;
19537;SDS011;9914;51.008;4.300;2022-07-18T13:38:48;4.00;;;1.83;;
19537;SDS011;9914;51.008;4.300;2022-07-18T13:41:14;2.47;;;1.80;;
19537;SDS011;9914;51.008;4.300;2022-07-18T13:43:40;2.20;;;1.73;;
19537;SDS011;9914;51.008;4.300;2022-07-18T13:46:07;2.65;;;1.70;;
19537;SDS011;9914;51.008;4.300;2022-07-18T13:48:34;4.75;;;1.80;;
19537;SDS011;9914;51.008;4.300;2022-07-18T13:51:00;4.45;;;1.60;;
19537;SDS011;9914;51.008;4.300;2022-07-18T13:53:26;2.55;;;2.20;;
19537;SDS011;9914;51.008;4.300;2022-07-18T13:55:51;4.07;;;1.90;;
19537;SDS011;9914;51.008;4.300;2022-07-18T13:58:17;3.33;;;1.92;;
19537;SDS011;9914;51.008;4.300;2022-07-18T14:00:43;2.42;;;1.85;;
19537;SDS011;9914;51.008;4.300;2022-07-18T14:03:09;2.30;;;1.88;;
19537;SDS011;9914;51.008;4.300;2022-07-18T14:05:35;1.90;;;1.65;;
19537;SDS011;9914;51.008;4.300;2022-07-18T14:08:01;2.97;;;2.08;;
19537;SDS011;9914;51.008;4.300;2022-07-18T14:10:28;2.15;;;1.80;;
19537;SDS011;9914;51.008;4.300;2022-07-18T14:12:53;3.60;;;1.95;;
19537;SDS011;9914;51.008;4.300;2022-07-18T14:15:19;4.25;;;1.70;;
19537;SDS011;9914;51.008;4.300;2022-07-18T14:17:45;4.88;;;3.03;;
19537;SDS011;9914;51.008;4.300;2022-07-18T14:20:11;2.20;;;1.73;;
19537;SDS011;9914;51.008;4.300;2022-07-18T14:22:38;3.80;;;2.25;;
19537;SDS011;9914;51.008;4.300;2022-07-18T14:25:05;2.38;;;1.52;;
19537;SDS011;9914;51.008;4.300;2022-07-18T14:27:32;2.65;;;1.88;;
19537;SDS011;9914;51.008;4.300;2022-07-18T14:29:58;2.85;;;1.60;;
19537;SDS011;9914;51.008;4.300;2022-07-18T14:32:24;4.70;;;1.85;;
19537;SDS011;9914;51.008;4.300;2022-07-18T14:34:51;3.42;;;1.80;;
19537;SDS011;9914;51.008;4.300;2022-07-18T14:37:16;1.92;;;1.73;;
19537;SDS011;9914;51.008;4.300;2022-07-18T14:39:42;3.20;;;1.85;;
19537;SDS011;9914;51.008;4.300;2022-07-18T14:42:08;2.35;;;1.77;;
19537;SDS011;9914;51.008;4.300;2022-07-18T14:44:34;2.00;;;1.80;;
19537;SDS011;9914;51.008;4.300;2022-07-18T14:47:00;2.20;;;1.80;;
19537;SDS011;9914;51.008;4.300;2022-07-18T14:49:26;4.57;;;2.17;;
19537;SDS011;9914;51.008;4.300;2022-07-18T14:51:51;2.47;;;1.75;;
19537;SDS011;9914;51.008;4.300;2022-07-18T14:54:17;2.85;;;1.85;;
19537;SDS011;9914;51.008;4.300;2022-07-18T14:56:42;2.90;;;1.83;;
19537;SDS011;9914;51.008;4.300;2022-07-18T14:59:08;4.32;;;2.00;;
19537;SDS011;9914;51.008;4.300;2022-07-18T15:01:34;2.60;;;1.67;;
19537;SDS011;9914;51.008;4.300;2022-07-18T15:03:59;4.28;;;1.67;;
19537;SDS011;9914;51.008;4.300;2022-07-18T15:06:25;1.77;;;1.50;;
19537;SDS011;9914;51.008;4.300;2022-07-18T15:08:51;3.17;;;1.88;;
19537;SDS011;9914;51.008;4.300;2022-07-18T15:11:17;3.50;;;1.67;;
19537;SDS011;9914;51.008;4.300;2022-07-18T15:13:46;2.75;;;1.80;;
19537;SDS011;9914;51.008;4.300;2022-07-18T15:16:11;2.10;;;1.90;;
19537;SDS011;9914;51.008;4.300;2022-07-18T15:18:38;2.95;;;1.70;;
19537;SDS011;9914;51.008;4.300;2022-07-18T15:21:04;2.47;;;1.58;;
19537;SDS011;9914;51.008;4.300;2022-07-18T15:23:30;2.65;;;1.75;;
19537;SDS011;9914;51.008;4.300;2022-07-18T15:25:55;3.10;;;1.90;;
19537;SDS011;9914;51.008;4.300;2022-07-18T15:28:21;2.45;;;1.50;;
19537;SDS011;9914;51.008;4.300;2022-07-18T15:30:47;4.55;;;1.73;;
19537;SDS011;9914;51.008;4.300;2022-07-18T15:33:14;2.72;;;1.67;;
19537;SDS011;9914;51.008;4.300;2022-07-18T15:35:40;1.77;;;1.63;;
19537;SDS011;9914;51.008;4.300;2022-07-18T15:38:05;2.35;;;1.80;;
19537;SDS011;9914;51.008;4.300;2022-07-18T15:40:32;2.17;;;1.80;;
19537;SDS011;9914;51.008;4.300;2022-07-18T15:42:58;1.92;;;1.35;;
19537;SDS011;9914;51.008;4.300;2022-07-18T15:45:23;1.92;;;1.70;;
19537;SDS011;9914;51.008;4.300;2022-07-18T15:47:49;2.42;;;1.55;;
19537;SDS011;9914;51.008;4.300;2022-07-18T15:50:15;3.38;;;1.50;;
19537;SDS011;9914;51.008;4.300;2022-07-18T15:52:41;2.25;;;1.52;;
19537;SDS011;9914;51.008;4.300;2022-07-18T15:55:07;2.95;;;1.88;;
19537;SDS011;9914;51.008;4.300;2022-07-18T15:57:33;2.30;;;1.85;;
19537;SDS011;9914;51.008;4.300;2022-07-18T15:59:58;2.10;;;1.83;;
19537;SDS011;9914;51.008;4.300;2022-07-18T16:02:24;3.65;;;1.73;;